createdAt,value
2019-02-10T00:00:13.959Z,63.26
2019-02-10T00:01:21.969Z,63.60
2019-02-10T00:02:30.040Z,63.26
2019-02-10T00:03:38.116Z,60.70
2019-02-10T00:04:46.174Z,64.01
2019-02-10T00:05:54.206Z,62.02
2019-02-10T00:07:02.247Z,60.22
2019-02-10T00:08:10.353Z,66.57
2019-02-10T00:09:18.387Z,66.38
2019-02-10T00:10:26.440Z,68.56
2019-02-10T00:11:34.498Z,63.45
2019-02-10T00:12:42.545Z,66.00
2019-02-10T00:13:50.594Z,68.27
2019-02-10T00:14:58.674Z,68.56
2019-02-10T00:16:06.727Z,67.43
2019-02-10T00:17:14.779Z,66.67
2019-02-10T00:18:22.848Z,65.34
2019-02-10T00:19:30.899Z,61.74
2019-02-10T00:20:38.942Z,61.27
2019-02-10T00:21:47.027Z,61.36
2019-02-10T00:22:55.072Z,63.26
2019-02-10T00:24:03.131Z,63.73
2019-02-10T00:25:11.175Z,66.76
2019-02-10T00:26:19.248Z,66.57
2019-02-10T00:27:27.294Z,64.96
2019-02-10T00:28:35.357Z,65.15
2019-02-10T00:29:43.415Z,67.05
2019-02-10T00:30:51.457Z,67.90
2019-02-10T00:31:59.528Z,68.37
2019-02-10T00:33:07.595Z,68.65
2019-02-10T00:34:15.639Z,63.35
2019-02-10T00:35:23.689Z,60.61
2019-02-10T00:36:33.114Z,62.31
2019-02-10T00:37:39.800Z,64.49
2019-02-10T00:38:47.882Z,65.81
2019-02-10T00:39:55.936Z,68.08
2019-02-10T00:41:03.983Z,62.88
2019-02-10T00:42:12.019Z,61.36
2019-02-10T00:43:20.092Z,62.02
2019-02-10T00:44:28.153Z,62.97
2019-02-10T00:45:36.208Z,62.59
2019-02-10T00:46:44.278Z,64.77
2019-02-10T00:47:52.326Z,64.87
2019-02-10T00:49:00.403Z,63.16
2019-02-10T00:50:08.455Z,61.83
2019-02-10T00:51:16.490Z,64.39
2019-02-10T00:52:24.576Z,64.96
2019-02-10T00:53:32.632Z,65.81
2019-02-10T00:54:40.675Z,66.57
2019-02-10T00:55:48.710Z,66.67
2019-02-10T00:56:56.766Z,66.47
2019-02-10T00:58:04.864Z,65.53
2019-02-10T00:59:12.890Z,65.06
2019-02-10T01:00:20.946Z,63.26
2019-02-10T01:01:29.016Z,64.30
2019-02-10T01:02:37.059Z,63.26
2019-02-10T01:03:45.174Z,61.74
2019-02-10T01:04:53.196Z,64.39
2019-02-10T01:06:01.237Z,66.00
2019-02-10T01:07:09.301Z,67.33
2019-02-10T01:08:17.348Z,62.88
2019-02-10T01:09:25.424Z,59.94
2019-02-10T01:10:33.467Z,63.82
2019-02-10T01:11:41.566Z,59.28
2019-02-10T01:12:49.601Z,58.62
2019-02-10T01:13:57.659Z,61.27
2019-02-10T01:15:05.721Z,56.15
2019-02-10T01:16:13.763Z,60.61
2019-02-10T01:17:21.800Z,63.07
2019-02-10T01:18:29.864Z,61.27
2019-02-10T01:19:37.973Z,59.94
2019-02-10T01:20:45.988Z,61.08
2019-02-10T01:21:54.048Z,63.26
2019-02-10T01:23:02.079Z,64.68
2019-02-10T01:24:10.156Z,63.82
2019-02-10T01:25:18.198Z,57.86
2019-02-10T01:26:26.283Z,59.66
2019-02-10T01:27:34.341Z,61.08
2019-02-10T01:28:42.399Z,58.81
2019-02-10T01:29:50.452Z,59.28
2019-02-10T01:30:58.509Z,61.36
2019-02-10T01:32:06.552Z,59.09
2019-02-10T01:33:14.629Z,59.56
2019-02-10T01:34:22.676Z,58.81
2019-02-10T01:35:30.736Z,61.08
2019-02-10T01:36:38.803Z,63.35
2019-02-10T01:37:46.854Z,62.78
2019-02-10T01:38:54.916Z,63.82
2019-02-10T01:40:02.963Z,66.38
2019-02-10T01:41:11.018Z,67.61
2019-02-10T01:42:19.098Z,67.14
2019-02-10T01:43:27.128Z,64.11
2019-02-10T01:44:35.185Z,64.01
2019-02-10T01:45:43.248Z,64.58
2019-02-10T01:46:51.313Z,66.38
2019-02-10T01:47:59.385Z,67.61
2019-02-10T01:49:07.423Z,67.33
2019-02-10T01:50:15.487Z,66.09
2019-02-10T01:51:23.547Z,67.61
2019-02-10T01:52:31.570Z,67.24
2019-02-10T01:53:39.667Z,66.57
2019-02-10T01:54:47.708Z,68.37
2019-02-10T01:55:55.769Z,66.38
2019-02-10T01:57:03.819Z,65.34
2019-02-10T01:58:11.859Z,66.76
2019-02-10T01:59:19.955Z,69.22
2019-02-10T02:00:27.996Z,69.22
2019-02-10T02:01:36.048Z,68.56
2019-02-10T02:02:44.104Z,67.99
2019-02-10T02:03:52.154Z,65.15
2019-02-10T02:05:00.220Z,65.15
2019-02-10T02:06:08.278Z,64.49
2019-02-10T02:07:16.350Z,65.34
2019-02-10T02:08:24.424Z,66.95
2019-02-10T02:09:32.441Z,67.24
2019-02-10T02:10:40.511Z,67.61
2019-02-10T02:11:48.578Z,68.56
2019-02-10T02:12:56.608Z,68.27
2019-02-10T02:14:04.685Z,68.37
2019-02-10T02:15:12.753Z,70.45
2019-02-10T02:16:20.795Z,70.17
2019-02-10T02:17:28.852Z,70.07
2019-02-10T02:18:36.913Z,71.12
2019-02-10T02:19:44.976Z,70.36
2019-02-10T02:20:53.050Z,66.67
2019-02-10T02:22:01.091Z,66.47
2019-02-10T02:23:09.176Z,68.65
2019-02-10T02:24:17.200Z,69.79
2019-02-10T02:25:25.259Z,70.55
2019-02-10T02:26:33.313Z,69.60
2019-02-10T02:27:41.362Z,69.22
2019-02-10T02:28:49.423Z,68.75
2019-02-10T02:29:57.485Z,70.07
2019-02-10T02:31:05.548Z,71.31
2019-02-10T02:32:13.607Z,70.17
2019-02-10T02:33:21.638Z,69.13
2019-02-10T02:34:29.714Z,68.27
2019-02-10T02:35:37.795Z,70.45
2019-02-10T02:36:45.823Z,70.45
2019-02-10T02:37:53.900Z,69.32
2019-02-10T02:39:01.940Z,69.79
2019-02-10T02:40:10.007Z,69.60
2019-02-10T02:41:18.061Z,66.38
2019-02-10T02:42:26.132Z,68.56
2019-02-10T02:43:34.204Z,69.60
2019-02-10T02:44:42.210Z,69.51
2019-02-10T02:45:50.296Z,69.13
2019-02-10T02:46:58.338Z,69.60
2019-02-10T02:48:06.399Z,70.45
2019-02-10T02:49:14.480Z,70.36
2019-02-10T02:50:22.519Z,69.51
2019-02-10T02:51:30.576Z,69.89
2019-02-10T02:52:38.648Z,68.65
2019-02-10T02:53:46.670Z,66.57
2019-02-10T02:54:54.793Z,67.24
2019-02-10T02:56:02.813Z,68.46
2019-02-10T02:57:10.871Z,62.97
2019-02-10T02:58:18.921Z,63.26
2019-02-10T02:59:27.007Z,64.96
2019-02-10T03:00:35.034Z,65.81
2019-02-10T03:01:43.096Z,64.01
2019-02-10T03:02:51.155Z,61.46
2019-02-10T03:03:59.197Z,61.55
2019-02-10T03:05:07.275Z,59.84
2019-02-10T03:06:15.333Z,60.70
2019-02-10T03:07:23.377Z,64.01
2019-02-10T03:08:31.446Z,64.39
2019-02-10T03:09:39.477Z,65.15
2019-02-10T03:10:47.583Z,65.15
2019-02-10T03:11:55.647Z,66.19
2019-02-10T03:13:03.678Z,66.95
2019-02-10T03:14:11.762Z,66.47
2019-02-10T03:15:19.786Z,66.67
2019-02-10T03:16:27.840Z,65.91
2019-02-10T03:17:35.902Z,63.35
2019-02-10T03:18:51.912Z,62.31
2019-02-10T03:19:51.992Z,60.61
2019-02-10T03:21:00.071Z,61.18
2019-02-10T03:22:08.128Z,62.21
2019-02-10T03:23:16.184Z,63.16
2019-02-10T03:24:24.217Z,64.87
2019-02-10T03:25:32.287Z,64.20
2019-02-10T03:26:40.367Z,61.74
2019-02-10T03:27:48.411Z,62.59
2019-02-10T03:28:56.477Z,57.86
2019-02-10T03:30:04.512Z,59.84
2019-02-10T03:31:12.586Z,59.56
2019-02-10T03:32:20.647Z,62.09
2019-02-10T03:33:28.699Z,62.12
2019-02-10T03:34:36.753Z,61.08
2019-02-10T03:35:44.822Z,62.59
2019-02-10T03:36:52.893Z,59.38
2019-02-10T03:38:00.932Z,56.22
2019-02-10T03:39:08.990Z,61.93
2019-02-10T03:40:17.039Z,65.53
2019-02-10T03:41:25.125Z,67.14
2019-02-10T03:42:33.170Z,66.76
2019-02-10T03:43:41.215Z,65.06
2019-02-10T03:44:49.270Z,63.07
2019-02-10T03:45:57.324Z,64.20
2019-02-10T03:47:05.372Z,67.33
2019-02-10T03:48:13.438Z,68.08
2019-02-10T03:49:21.484Z,67.33
2019-02-10T03:50:29.561Z,62.78
2019-02-10T03:51:37.613Z,64.20
2019-02-10T03:52:45.686Z,64.83
2019-02-10T03:53:53.723Z,66.57
2019-02-10T03:55:01.763Z,68.18
2019-02-10T03:56:09.882Z,68.84
2019-02-10T03:57:17.898Z,69.00
2019-02-10T03:58:25.964Z,68.62
2019-02-10T03:59:34.006Z,67.99
2019-02-10T04:00:42.051Z,65.88
2019-02-10T04:01:50.131Z,64.45
2019-02-10T04:02:58.186Z,63.98
2019-02-10T04:04:06.252Z,64.93
2019-02-10T04:05:14.301Z,66.63
2019-02-10T04:06:22.357Z,66.44
2019-02-10T04:07:35.781Z,66.92
2019-02-10T04:08:38.488Z,67.20
2019-02-10T04:09:46.525Z,62.94
2019-02-10T04:10:54.582Z,63.13
2019-02-10T04:12:02.630Z,63.98
2019-02-10T04:13:10.692Z,61.71
2019-02-10T04:14:18.759Z,61.61
2019-02-10T04:15:26.814Z,60.86
2019-02-10T04:16:34.887Z,61.15
2019-02-10T04:17:42.918Z,62.09
2019-02-10T04:18:50.974Z,62.85
2019-02-10T04:19:59.030Z,64.17
2019-02-10T04:21:07.095Z,65.21
2019-02-10T04:22:15.149Z,61.24
2019-02-10T04:23:23.212Z,56.41
2019-02-10T04:24:31.264Z,56.13
2019-02-10T04:25:39.337Z,59.81
2019-02-10T04:26:47.387Z,62.28
2019-02-10T04:27:55.439Z,64.45
2019-02-10T04:29:03.523Z,67.11
2019-02-10T04:30:11.557Z,66.82
2019-02-10T04:31:19.621Z,66.73
2019-02-10T04:32:27.677Z,67.11
2019-02-10T04:33:35.744Z,67.11
2019-02-10T04:34:43.784Z,68.62
2019-02-10T04:35:51.818Z,68.33
2019-02-10T04:36:59.898Z,67.39
2019-02-10T04:38:07.956Z,63.23
2019-02-10T04:39:16.012Z,61.80
2019-02-10T04:40:24.078Z,58.78
2019-02-10T04:41:32.110Z,55.18
2019-02-10T04:42:40.191Z,56.70
2019-02-10T04:43:48.230Z,58.78
2019-02-10T04:44:56.288Z,60.67
2019-02-10T04:46:04.383Z,61.52
2019-02-10T04:47:12.399Z,60.58
2019-02-10T04:48:20.462Z,59.81
2019-02-10T04:49:28.523Z,59.53
2019-02-10T04:50:36.586Z,59.06
2019-02-10T04:51:44.642Z,57.64
2019-02-10T04:52:52.700Z,51.20
2019-02-10T04:54:00.738Z,51.58
2019-02-10T04:55:08.795Z,52.25
2019-02-10T04:56:16.874Z,52.72
2019-02-10T04:57:24.907Z,55.56
2019-02-10T04:58:32.980Z,57.54
2019-02-10T04:59:41.021Z,58.21
2019-02-10T05:00:49.095Z,58.11
2019-02-10T05:01:57.152Z,59.16
2019-02-10T05:03:05.214Z,61.33
2019-02-10T05:04:13.304Z,62.85
2019-02-10T05:05:21.310Z,61.99
2019-02-10T05:06:29.384Z,63.04
2019-02-10T05:07:37.426Z,62.85
2019-02-10T05:08:45.483Z,59.81
2019-02-10T05:09:53.541Z,58.68
2019-02-10T05:11:01.590Z,59.91
2019-02-10T05:12:09.664Z,59.91
2019-02-10T05:13:17.717Z,62.28
2019-02-10T05:14:25.758Z,61.90
2019-02-10T05:15:33.830Z,63.13
2019-02-10T05:16:41.871Z,60.58
2019-02-10T05:17:50.014Z,58.68
2019-02-10T05:18:57.997Z,58.59
2019-02-10T05:20:06.047Z,61.43
2019-02-10T05:21:14.132Z,62.47
2019-02-10T05:22:22.176Z,62.94
2019-02-10T05:23:30.224Z,63.98
2019-02-10T05:24:38.279Z,64.93
2019-02-10T05:25:46.334Z,65.12
2019-02-10T05:26:54.403Z,65.78
2019-02-10T05:28:02.461Z,62.75
2019-02-10T05:29:10.506Z,62.94
2019-02-10T05:30:18.566Z,63.60
2019-02-10T05:31:26.619Z,64.45
2019-02-10T05:32:34.688Z,64.83
2019-02-10T05:33:42.737Z,64.55
2019-02-10T05:34:50.790Z,64.93
2019-02-10T05:35:58.840Z,64.36
2019-02-10T05:37:06.900Z,65.02
2019-02-10T05:38:14.965Z,64.45
2019-02-10T05:39:23.032Z,65.12
2019-02-10T05:40:31.084Z,64.74
2019-02-10T05:41:39.145Z,63.04
2019-02-10T05:42:47.204Z,62.09
2019-02-10T05:43:55.256Z,58.02
2019-02-10T05:45:03.301Z,56.70
2019-02-10T05:46:11.357Z,59.72
2019-02-10T05:47:19.536Z,61.43
2019-02-10T05:48:27.477Z,57.64
2019-02-10T05:49:35.520Z,59.44
2019-02-10T05:50:43.579Z,55.37
2019-02-10T05:51:51.633Z,54.33
2019-02-10T05:52:59.716Z,58.11
2019-02-10T05:54:07.778Z,55.94
2019-02-10T05:55:15.822Z,56.41
2019-02-10T05:56:23.878Z,57.92
2019-02-10T05:57:31.915Z,56.88
2019-02-10T05:58:39.992Z,54.14
2019-02-10T05:59:48.069Z,53.95
2019-02-10T06:00:56.150Z,54.14
2019-02-10T06:02:04.183Z,59.63
2019-02-10T06:03:12.209Z,57.67
2019-02-10T06:04:20.300Z,60.61
2019-02-10T06:05:28.349Z,62.97
2019-02-10T06:06:36.398Z,64.39
2019-02-10T06:07:44.466Z,61.74
2019-02-10T06:08:52.519Z,63.16
2019-02-10T06:10:00.670Z,63.82
2019-02-10T06:11:08.641Z,64.68
2019-02-10T06:12:16.690Z,66.38
2019-02-10T06:13:24.748Z,65.81
2019-02-10T06:14:32.790Z,66.57
2019-02-10T06:15:40.878Z,67.05
2019-02-10T06:16:48.930Z,68.56
2019-02-10T06:17:56.987Z,70.26
2019-02-10T06:19:05.046Z,71.69
2019-02-10T06:20:13.088Z,71.40
2019-02-10T06:21:21.153Z,71.12
2019-02-10T06:22:29.239Z,70.45
2019-02-10T06:23:37.269Z,70.07
2019-02-10T06:24:45.320Z,70.45
2019-02-10T06:25:53.379Z,71.02
2019-02-10T06:27:01.425Z,72.16
2019-02-10T06:28:09.504Z,71.97
2019-02-10T06:29:18.564Z,73.01
2019-02-10T06:30:26.606Z,73.11
2019-02-10T06:31:34.669Z,72.73
2019-02-10T06:32:42.720Z,73.68
2019-02-10T06:33:50.779Z,73.30
2019-02-10T06:34:58.837Z,74.43
2019-02-10T06:36:06.906Z,75.00
2019-02-10T06:37:14.964Z,75.28
2019-02-10T06:38:23.059Z,76.80
2019-02-10T06:39:31.070Z,75.95
2019-02-10T06:40:39.121Z,76.80
2019-02-10T06:41:47.184Z,76.04
2019-02-10T06:42:55.242Z,75.85
2019-02-10T06:44:03.281Z,77.08
2019-02-10T06:45:11.346Z,77.56
2019-02-10T06:46:19.419Z,77.94
2019-02-10T06:47:27.470Z,77.84
2019-02-10T06:48:35.521Z,78.26
2019-02-10T06:49:43.581Z,78.92
2019-02-10T06:50:51.629Z,78.98
2019-02-10T06:51:59.702Z,79.39
2019-02-10T06:53:07.747Z,80.06
2019-02-10T06:54:15.823Z,81.10
2019-02-10T06:55:23.932Z,81.10
2019-02-10T06:56:31.937Z,83.09
2019-02-10T06:57:39.990Z,83.28
2019-02-10T06:58:48.279Z,85.36
2019-02-10T06:59:56.094Z,86.31
2019-02-10T07:01:04.166Z,84.99
2019-02-10T07:02:12.248Z,85.84
2019-02-10T07:03:20.275Z,87.54
2019-02-10T07:04:28.439Z,87.92
2019-02-10T07:05:36.383Z,87.07
2019-02-10T07:06:44.439Z,86.12
2019-02-10T07:07:52.500Z,89.53
2019-02-10T07:09:00.557Z,90.77
2019-02-10T07:10:08.645Z,88.87
2019-02-10T07:11:16.687Z,91.14
2019-02-10T07:12:24.738Z,92.76
2019-02-10T07:13:33.017Z,93.23
2019-02-10T07:14:40.858Z,95.12
2019-02-10T07:15:48.897Z,93.61
2019-02-10T07:16:56.978Z,95.93
2019-02-10T07:18:05.028Z,96.03
2019-02-10T07:19:13.082Z,95.74
2019-02-10T07:20:21.138Z,97.83
2019-02-10T07:21:29.208Z,95.84
2019-02-10T07:22:37.252Z,97.54
2019-02-10T07:23:45.293Z,95.93
2019-02-10T07:24:53.402Z,96.03
2019-02-10T07:26:01.444Z,96.31
2019-02-10T07:27:09.502Z,97.73
2019-02-10T07:28:17.577Z,98.02
2019-02-10T07:29:25.603Z,97.92
2019-02-10T07:30:33.677Z,97.73
2019-02-10T07:31:41.697Z,96.88
2019-02-10T07:32:49.818Z,98.58
2019-02-10T07:33:58.577Z,98.49
2019-02-10T07:35:05.894Z,98.11
2019-02-10T07:36:13.969Z,98.77
2019-02-10T07:37:21.992Z,99.99
2019-02-10T07:38:30.081Z,98.87
2019-02-10T07:39:38.128Z,98.96
2019-02-10T07:40:46.183Z,99.99
2019-02-10T07:41:54.247Z,99.99
2019-02-10T07:43:02.286Z,99.82
2019-02-10T07:44:10.370Z,99.99
2019-02-10T07:45:18.410Z,99.99
2019-02-10T07:46:26.485Z,99.99
2019-02-10T07:47:34.534Z,99.44
2019-02-10T07:48:42.613Z,99.99
2019-02-10T07:49:50.668Z,99.99
2019-02-10T07:50:58.729Z,99.99
2019-02-10T07:52:06.769Z,99.99
2019-02-10T07:53:14.819Z,99.99
2019-02-10T07:54:22.905Z,99.99
2019-02-10T07:55:30.956Z,99.99
2019-02-10T07:56:38.994Z,99.99
2019-02-10T07:57:47.072Z,99.99
2019-02-10T07:58:55.118Z,99.99
2019-02-10T08:00:03.190Z,99.99
2019-02-10T08:01:11.243Z,99.99
2019-02-10T08:02:19.291Z,99.99
2019-02-10T08:03:27.353Z,99.99
2019-02-10T08:04:35.422Z,99.99
2019-02-10T08:05:43.805Z,99.99
2019-02-10T08:06:51.517Z,99.99
2019-02-10T08:07:59.596Z,99.99
2019-02-10T08:09:07.661Z,99.99
2019-02-10T08:10:15.717Z,99.99
2019-02-10T08:11:23.811Z,99.99
2019-02-10T08:12:31.820Z,99.99
2019-02-10T08:13:39.895Z,99.99
2019-02-10T08:14:47.948Z,99.99
2019-02-10T08:15:56.009Z,99.99
2019-02-10T08:17:04.068Z,99.99
2019-02-10T08:18:12.101Z,99.99
2019-02-10T08:19:20.197Z,99.99
2019-02-10T08:20:28.241Z,99.99
2019-02-10T08:21:36.312Z,99.99
2019-02-10T08:22:44.346Z,99.99
2019-02-10T08:23:52.394Z,99.99
2019-02-10T08:25:00.480Z,99.99
2019-02-10T08:26:08.549Z,99.99
2019-02-10T08:27:16.611Z,99.99
2019-02-10T08:28:25.696Z,99.99
2019-02-10T08:29:33.702Z,99.99
2019-02-10T08:30:41.796Z,99.99
2019-02-10T08:31:49.838Z,99.99
2019-02-10T08:32:57.909Z,99.99
2019-02-10T08:34:05.954Z,99.99
2019-02-10T08:35:14.019Z,99.99
2019-02-10T08:36:22.062Z,99.99
2019-02-10T08:37:30.141Z,99.99
2019-02-10T08:38:38.293Z,99.99
2019-02-10T08:39:46.244Z,99.99
2019-02-10T08:40:54.313Z,99.99
2019-02-10T08:42:02.359Z,99.99
2019-02-10T08:43:10.432Z,99.99
2019-02-10T08:44:18.493Z,99.99
2019-02-10T08:45:26.586Z,99.99
2019-02-10T08:46:34.617Z,99.99
2019-02-10T08:47:42.661Z,99.99
2019-02-10T08:48:50.746Z,99.99
2019-02-10T08:49:58.814Z,99.99
2019-02-10T08:51:06.853Z,99.99
2019-02-10T08:52:14.911Z,99.99
2019-02-10T08:53:22.977Z,99.99
2019-02-10T08:54:31.040Z,99.99
2019-02-10T08:55:39.106Z,99.99
2019-02-10T08:56:47.160Z,99.99
2019-02-10T08:57:55.214Z,99.99
2019-02-10T08:59:03.278Z,99.99
2019-02-10T09:00:11.336Z,99.99
2019-02-10T09:01:19.516Z,99.99
2019-02-10T09:02:27.467Z,99.99
2019-02-10T09:03:35.507Z,99.99
2019-02-10T09:04:43.571Z,99.99
2019-02-10T09:05:51.626Z,99.99
2019-02-10T09:06:59.715Z,99.99
2019-02-10T09:08:07.762Z,99.99
2019-02-10T09:09:15.824Z,99.99
2019-02-10T09:10:24.134Z,99.99
2019-02-10T09:11:31.926Z,99.99
2019-02-10T09:12:40.043Z,99.99
2019-02-10T09:13:48.427Z,99.99
2019-02-10T09:14:56.125Z,99.99
2019-02-10T09:16:04.190Z,99.99
2019-02-10T09:17:12.232Z,99.99
2019-02-10T09:18:20.307Z,99.99
2019-02-10T09:19:28.403Z,99.99
2019-02-10T09:20:36.440Z,99.99
2019-02-10T09:21:44.807Z,99.99
2019-02-10T09:22:52.561Z,99.99
2019-02-10T09:24:00.612Z,99.99
2019-02-10T09:25:08.693Z,99.99
2019-02-10T09:26:16.739Z,99.99
2019-02-10T09:27:24.798Z,99.99
2019-02-10T09:28:32.863Z,99.99
2019-02-10T09:29:41.097Z,99.99
2019-02-10T09:30:48.985Z,99.99
2019-02-10T09:31:57.054Z,99.99
2019-02-10T09:33:05.099Z,99.99
2019-02-10T09:34:13.174Z,99.99
2019-02-10T09:35:21.217Z,99.99
2019-02-10T09:36:29.765Z,99.99
2019-02-10T09:37:37.353Z,99.99
2019-02-10T09:38:45.418Z,99.99
2019-02-10T09:39:53.477Z,99.99
2019-02-10T09:41:01.514Z,99.99
2019-02-10T09:42:09.586Z,99.99
2019-02-10T09:43:17.656Z,99.99
2019-02-10T09:44:25.717Z,99.99
2019-02-10T09:45:33.767Z,99.99
2019-02-10T09:46:41.834Z,99.99
2019-02-10T09:47:49.905Z,99.99
2019-02-10T09:48:57.978Z,99.99
2019-02-10T09:50:06.025Z,99.99
2019-02-10T09:51:14.082Z,99.99
2019-02-10T09:52:22.164Z,99.99
2019-02-10T09:53:30.201Z,99.99
2019-02-10T09:54:38.274Z,99.99
2019-02-10T09:55:46.321Z,99.99
2019-02-10T09:56:54.421Z,99.99
2019-02-10T09:58:02.481Z,99.99
2019-02-10T09:59:10.510Z,99.99
2019-02-10T10:00:18.571Z,99.99
2019-02-10T10:01:26.636Z,99.99
2019-02-10T10:02:34.694Z,99.99
2019-02-10T10:03:42.835Z,99.99
2019-02-10T10:04:50.824Z,99.99
2019-02-10T10:05:58.888Z,99.99
2019-02-10T10:07:06.934Z,99.99
2019-02-10T10:08:14.996Z,99.99
2019-02-10T10:09:23.060Z,99.99
2019-02-10T10:10:31.132Z,99.99
2019-02-10T10:11:39.202Z,99.99
2019-02-10T10:12:47.255Z,99.99
2019-02-10T10:13:55.312Z,99.99
2019-02-10T10:15:03.383Z,99.99
2019-02-10T10:16:11.568Z,99.99
2019-02-10T10:17:19.525Z,99.99
2019-02-10T10:18:27.571Z,99.99
2019-02-10T10:19:35.637Z,99.99
2019-02-10T10:20:43.756Z,99.99
2019-02-10T10:21:51.721Z,99.99
2019-02-10T10:22:59.880Z,99.99
2019-02-10T10:24:07.880Z,99.99
2019-02-10T10:25:15.953Z,99.99
2019-02-10T10:26:24.002Z,99.99
2019-02-10T10:27:32.054Z,99.99
2019-02-10T10:28:40.134Z,99.99
2019-02-10T10:29:48.201Z,99.99
2019-02-10T10:30:56.256Z,99.99
2019-02-10T10:32:04.300Z,99.99
2019-02-10T10:33:12.412Z,99.99
2019-02-10T10:34:20.465Z,99.99
2019-02-10T10:35:28.507Z,99.99
2019-02-10T10:36:36.576Z,99.99
2019-02-10T10:37:44.679Z,99.99
2019-02-10T10:38:52.683Z,99.99
2019-02-10T10:40:00.754Z,99.99
2019-02-10T10:41:08.808Z,99.99
2019-02-10T10:42:16.891Z,99.99
2019-02-10T10:43:24.937Z,99.99
2019-02-10T10:44:33.006Z,99.99
2019-02-10T10:45:41.055Z,99.99
2019-02-10T10:46:49.119Z,99.99
2019-02-10T10:47:57.187Z,99.99
2019-02-10T10:49:05.275Z,99.99
2019-02-10T10:50:13.330Z,99.99
2019-02-10T10:51:21.365Z,99.99
2019-02-10T10:52:29.440Z,99.99
2019-02-10T10:53:37.501Z,99.99
2019-02-10T10:54:45.554Z,99.99
2019-02-10T10:55:53.640Z,99.99
2019-02-10T10:57:01.679Z,99.99
2019-02-10T10:58:09.806Z,99.99
2019-02-10T10:59:17.823Z,99.99
2019-02-10T11:00:25.907Z,99.99
2019-02-10T11:01:33.967Z,99.99
2019-02-10T11:02:41.992Z,99.99
2019-02-10T11:03:50.089Z,99.46
2019-02-10T11:04:58.160Z,99.99
2019-02-10T11:06:06.192Z,95.98
2019-02-10T11:07:14.307Z,99.99
2019-02-10T11:08:22.315Z,98.36
2019-02-10T11:09:35.342Z,99.99
2019-02-10T11:10:38.442Z,99.99
2019-02-10T11:11:46.528Z,99.99
2019-02-10T11:12:54.591Z,99.99
2019-02-10T11:14:02.653Z,99.99
2019-02-10T11:15:10.722Z,99.99
2019-02-10T11:16:18.784Z,99.99
2019-02-10T11:17:26.860Z,99.99
2019-02-10T11:18:34.906Z,99.99
2019-02-10T11:19:42.983Z,99.60
2019-02-10T11:20:51.038Z,99.99
2019-02-10T11:21:59.136Z,99.99
2019-02-10T11:23:07.182Z,98.55
2019-02-10T11:24:15.232Z,96.55
2019-02-10T11:25:23.282Z,99.99
2019-02-10T11:26:31.352Z,92.94
2019-02-10T11:27:39.422Z,89.89
2019-02-10T11:28:47.486Z,94.74
2019-02-10T11:29:55.561Z,94.84
2019-02-10T11:31:03.619Z,87.98
2019-02-10T11:32:11.669Z,88.31
2019-02-10T11:33:19.743Z,89.94
2019-02-10T11:34:27.795Z,91.74
2019-02-10T11:35:35.868Z,88.22
2019-02-10T11:36:43.942Z,88.70
2019-02-10T11:37:52.070Z,86.79
2019-02-10T11:39:00.056Z,86.41
2019-02-10T11:40:08.143Z,87.07
2019-02-10T11:41:16.184Z,82.50
2019-02-10T11:42:24.264Z,80.50
2019-02-10T11:43:32.293Z,79.07
2019-02-10T11:44:40.386Z,78.50
2019-02-10T11:45:48.465Z,80.50
2019-02-10T11:46:56.515Z,74.98
2019-02-10T11:48:04.585Z,76.21
2019-02-10T11:49:12.634Z,79.93
2019-02-10T11:50:20.696Z,77.83
2019-02-10T11:51:28.788Z,77.20
2019-02-10T11:52:36.840Z,75.68
2019-02-10T11:53:44.897Z,75.40
2019-02-10T11:54:52.991Z,76.35
2019-02-10T11:56:01.030Z,76.35
2019-02-10T11:57:09.098Z,75.30
2019-02-10T11:58:17.156Z,72.25
2019-02-10T11:59:25.232Z,73.58
2019-02-10T12:00:33.294Z,71.20
2019-02-10T12:01:41.357Z,72.44
2019-02-10T12:02:49.404Z,74.29
2019-02-10T12:03:57.478Z,72.53
2019-02-10T12:05:05.541Z,71.39
2019-02-10T12:06:13.591Z,68.95
2019-02-10T12:07:21.695Z,68.09
2019-02-10T12:08:35.518Z,70.76
2019-02-10T12:09:37.790Z,70.47
2019-02-10T12:10:45.900Z,69.71
2019-02-10T12:11:53.978Z,69.14
2019-02-10T12:13:01.972Z,70.09
2019-02-10T12:14:10.057Z,70.76
2019-02-10T12:15:18.127Z,70.76
2019-02-10T12:16:26.185Z,68.85
2019-02-10T12:17:34.252Z,69.62
2019-02-10T12:18:42.309Z,68.85
2019-02-10T12:19:50.381Z,68.85
2019-02-10T12:20:58.453Z,68.41
2019-02-10T12:22:06.526Z,68.51
2019-02-10T12:23:14.584Z,68.38
2019-02-10T12:24:22.657Z,71.18
2019-02-10T12:25:30.727Z,68.12
2019-02-10T12:26:38.784Z,68.88
2019-02-10T12:27:46.854Z,68.03
2019-02-10T12:28:54.944Z,67.83
2019-02-10T12:30:03.248Z,67.61
2019-02-10T12:31:11.055Z,65.70
2019-02-10T12:32:19.159Z,66.56
2019-02-10T12:33:27.174Z,68.47
2019-02-10T12:34:35.242Z,69.14
2019-02-10T12:35:43.304Z,69.04
2019-02-10T12:36:51.355Z,67.71
2019-02-10T12:37:59.434Z,67.99
2019-02-10T12:39:07.501Z,68.66
2019-02-10T12:40:15.573Z,69.14
2019-02-10T12:41:23.625Z,67.23
2019-02-10T12:42:31.695Z,67.42
2019-02-10T12:43:39.779Z,69.62
2019-02-10T12:44:48.379Z,68.53
2019-02-10T12:45:55.884Z,69.29
2019-02-10T12:47:03.965Z,71.20
2019-02-10T12:48:12.002Z,70.53
2019-02-10T12:49:20.092Z,72.82
2019-02-10T12:50:28.148Z,73.30
2019-02-10T12:51:36.262Z,70.53
2019-02-10T12:52:44.321Z,70.63
2019-02-10T12:53:52.354Z,72.72
2019-02-10T12:55:01.520Z,72.53
2019-02-10T12:56:08.467Z,73.11
2019-02-10T12:57:16.538Z,72.16
2019-02-10T12:58:24.599Z,72.72
2019-02-10T12:59:32.749Z,72.53
2019-02-10T13:00:40.786Z,73.21
2019-02-10T13:01:48.796Z,72.44
2019-02-10T13:02:56.871Z,73.49
2019-02-10T13:04:04.935Z,73.39
2019-02-10T13:05:12.992Z,74.16
2019-02-10T13:06:21.041Z,74.92
2019-02-10T13:07:29.120Z,74.02
2019-02-10T13:08:37.190Z,74.79
2019-02-10T13:09:45.271Z,76.79
2019-02-10T13:10:53.310Z,79.55
2019-02-10T13:12:01.385Z,80.60
2019-02-10T13:13:09.441Z,82.31
2019-02-10T13:14:17.516Z,89.70
2019-02-10T13:15:25.562Z,92.08
2019-02-10T13:16:33.635Z,99.99
2019-02-10T13:17:41.694Z,99.99
2019-02-10T13:18:49.759Z,99.99
2019-02-10T13:19:58.453Z,99.99
2019-02-10T13:21:05.896Z,99.99
2019-02-10T13:22:13.944Z,99.99
2019-02-10T13:23:22.037Z,99.99
2019-02-10T13:24:30.080Z,99.99
2019-02-10T13:25:38.143Z,99.99
2019-02-10T13:26:46.202Z,99.99
2019-02-10T13:27:54.280Z,99.99
2019-02-10T13:29:02.306Z,99.99
2019-02-10T13:30:10.383Z,99.99
2019-02-10T13:31:18.450Z,99.99
2019-02-10T13:32:26.542Z,99.99
2019-02-10T13:33:34.594Z,99.99
2019-02-10T13:34:43.091Z,99.99
2019-02-10T13:35:51.389Z,99.99
2019-02-10T13:36:58.782Z,99.99
2019-02-10T13:38:06.823Z,99.99
2019-02-10T13:39:14.894Z,99.99
2019-02-10T13:40:23.191Z,99.99
2019-02-10T13:41:31.022Z,99.99
2019-02-10T13:42:39.075Z,99.99
2019-02-10T13:43:47.175Z,99.99
2019-02-10T13:44:55.202Z,99.99
2019-02-10T13:46:03.277Z,99.99
2019-02-10T13:47:11.390Z,99.99
2019-02-10T13:48:19.393Z,99.99
2019-02-10T13:49:27.441Z,99.99
2019-02-10T13:50:35.522Z,99.99
2019-02-10T13:51:43.587Z,99.99
2019-02-10T13:52:51.620Z,99.99
2019-02-10T13:53:59.694Z,99.99
2019-02-10T13:55:07.778Z,99.99
2019-02-10T13:56:16.015Z,99.99
2019-02-10T13:57:23.890Z,99.99
2019-02-10T13:58:31.924Z,99.99
2019-02-10T13:59:40.005Z,99.99
2019-02-10T14:00:48.078Z,99.99
2019-02-10T14:01:56.138Z,99.99
2019-02-10T14:03:04.193Z,99.99
2019-02-10T14:04:12.229Z,99.99
2019-02-10T14:05:20.306Z,99.99
2019-02-10T14:06:28.411Z,99.99
2019-02-10T14:07:36.447Z,99.99
2019-02-10T14:08:44.510Z,99.99
2019-02-10T14:09:52.556Z,99.99
2019-02-10T14:11:00.643Z,99.99
2019-02-10T14:12:08.687Z,99.99
2019-02-10T14:13:17.201Z,99.99
2019-02-10T14:14:24.817Z,99.99
2019-02-10T14:15:32.882Z,99.99
2019-02-10T14:16:40.927Z,99.99
2019-02-10T14:17:48.990Z,99.99
2019-02-10T14:18:57.068Z,99.99
2019-02-10T14:20:05.109Z,99.99
2019-02-10T14:21:13.199Z,99.99
2019-02-10T14:22:21.245Z,99.99
2019-02-10T14:23:29.310Z,99.99
2019-02-10T14:24:37.405Z,99.99
2019-02-10T14:25:45.422Z,99.99
2019-02-10T14:26:53.495Z,99.99
2019-02-10T14:28:01.517Z,99.99
2019-02-10T14:29:09.612Z,99.99
2019-02-10T14:30:17.675Z,99.99
2019-02-10T14:31:25.730Z,99.99
2019-02-10T14:32:33.806Z,99.99
2019-02-10T14:33:41.837Z,99.99
2019-02-10T14:34:49.929Z,99.99
2019-02-10T14:35:57.971Z,99.99